Current Weather

New York Stewart Intl

New York, New York (KSWF)

Report from: Tuesday, May 21, 2024 11:45 AM EDT
Current time: Tuesday, May 21, 2024 12:07 PM EDT

Nearby weather – Weather history – Daily summaries
Weather forecast

Temperature26.0°C (78.8°F)
Dew point18.0°C (64.4°F)
Winds Calm
Visibility10 mi. (16.1 km)
Clouds Sky clear
Altimeter29.97 in.Hg (1015 mB)
Relative humidity61 %
Density altitude1,498 ft. (456 m)
Flight conditions Visual Meteorological Conditions
Raw dataKSWF 211545Z 00000KT 10SM SKC 26/18 A2997
An error has occurred. This application may no longer respond until reloaded. Reload 🗙